CYRQ Airport Information

Runway Information
Runway 05 Length 6000 ft width 150 ft
Elevation 190 ft Threshold 0 ft Heading 31
Runway 23 Length 6000 ft Width 150 ft
Elevation 199 ft Threshold 0 ft Heading 211
Airport Frequencies
Type CNTR Name MONTREAL C Frequency 128.22 MHZ
Type UNIC Name MF/UNICOM Frequency 123 MHZ
Airport Navaids
Type NDB Name Trois Rivières Frequency 205 KHZ
Airport Weather Information & NOTAM
ADDS - METARS form results

(0148 UTC 05 March 2021)
Data provider http://aviationweather.gov/metar/data/
 
METAR text: CYRQ 050120Z AUTO 31008G15KT 270V340 9SM BKN036 OVC160 M10/M16 A2976 RMK SLP084
Conditions at: CYRQ (TROIS RIVIERES , QC, CA) observed 0120 UTC 05 March 2021
Temperature: -10.0°C (14°F)
Dewpoint: -16.0°C ( 3°F) [RH = 61%]
Pressure (altimeter): 29.76 inches Hg (1007.9 mb)
[Sea-level pressure: 1008.4 mb]
Winds: from the NW (310 degrees) at 9 MPH (8 knots; 4.1 m/s)
gusting to 17 MPH (15 knots; 7.7 m/s)
Visibility: 9 miles (14 km)
Ceiling: 3600 feet AGL
Clouds: broken clouds at 3600 feet AGL
overcast cloud deck at 16000 feet AGL
Weather: no significant weather observed at this time

METAR text: CYRQ 050100Z AUTO 29009G17KT 250V330 9SM -SN OVC036 M09/M15 A2976 RMK SLP083
Conditions at: CYRQ (TROIS RIVIERES , QC, CA) observed 0100 UTC 05 March 2021
Temperature: -9.0°C (16°F)
Dewpoint: -15.0°C ( 5°F) [RH = 62%]
Pressure (altimeter): 29.76 inches Hg (1007.9 mb)
[Sea-level pressure: 1008.3 mb]
Winds: from the WNW (290 degrees) at 10 MPH (9 knots; 4.6 m/s)
gusting to 20 MPH (17 knots; 8.7 m/s)
Visibility: 9 miles (14 km)
Ceiling: 3600 feet AGL
Clouds: overcast cloud deck at 3600 feet AGL
Weather: -SN  (light snow)

Forecast for: CYRQ (TROIS RIVIERES , QC, CA)
Text: TAF CYRQ 050138Z 0502/0514 29010G20KT P6SM SCT040 BKN100
Forecast period: 0200 to 1400 UTC 05 March 2021
Forecast type: FROM: standard forecast or significant change
Winds: from the WNW (290 degrees) at 12 MPH (10 knots; 5.1 m/s)
gusting to 23 MPH (20 knots; 10.3 m/s)
Visibility: 6 or more miles (10+ km)
Ceiling: 10000 feet AGL
Clouds: scattered clouds at 4000 feet AGL
broken clouds at 10000 feet AGL
Weather: no significant weather forecast for this period
Text: TEMPO 0502/0514 P6SM -SN OVC040 RMK FCST BASED ON AUTO OBS. NXT FCST BY 050800Z
Forecast period: 0200 to 1400 UTC 05 March 2021
Forecast type: TEMPORARY: The following changes expected for less than half the time period
Visibility: 6 or more miles (10+ km)
Ceiling: 4000 feet AGL
Clouds: overcast cloud deck at 4000 feet AGL
Weather: -SN  (light snow)